Time;durP1;ratioP1;P1;durP2;ratioP2;P2;SDS_P1;SDS_P2;PMS_P1;PMS_P2;Temp;Humidity;BMP_temperature;BMP_pressure;BME280_temperature;BME280_humidity;BME280_pressure;Samples;Min_cycle;Max_cycle;Signal;HPM_P1;HPM_P2
2024/04/23 00:01:21;;;;;;;975.50;874.10;;;0.90;99.90;;;;;;5466019;26;20330;-70
2024/04/23 00:03:50;;;;;;;971.37;869.20;;;0.90;99.90;;;;;;5449275;26;20989;-70
2024/04/23 00:06:16;;;;;;;971.07;867.30;;;1.00;99.90;;;;;;5414424;26;20524;-71
2024/04/23 00:08:44;;;;;;;961.37;857.27;;;1.00;99.90;;;;;;5458151;26;20474;-69
2024/04/23 00:11:13;;;;;;;976.50;872.90;;;1.10;99.90;;;;;;5445090;26;20461;-69
2024/04/23 00:13:41;;;;;;;962.50;860.33;;;1.10;99.90;;;;;;5475099;26;20523;-68
2024/04/23 00:16:07;;;;;;;977.17;872.90;;;1.20;99.90;;;;;;5460406;26;20851;-70
2024/04/23 00:18:36;;;;;;;963.70;860.23;;;1.20;99.90;;;;;;5448016;26;20471;-67
2024/04/23 00:21:02;;;;;;;966.57;864.37;;;1.10;99.90;;;;;;5450007;26;20536;-68
2024/04/23 00:23:30;;;;;;;970.07;868.43;;;1.30;99.90;;;;;;5458148;26;20566;-68
2024/04/23 00:25:56;;;;;;;957.80;857.87;;;1.30;99.90;;;;;;5453791;26;20457;-69
2024/04/23 00:28:27;;;;;;;965.63;861.93;;;1.30;99.90;;;;;;5453698;26;20523;-68
2024/04/23 00:30:53;;;;;;;965.73;863.03;;;1.30;99.90;;;;;;5468798;26;20241;-68
2024/04/23 00:33:21;;;;;;;966.60;864.37;;;1.20;99.90;;;;;;5459937;26;21136;-68
2024/04/23 00:35:47;;;;;;;969.17;863.07;;;1.00;99.90;;;;;;5433847;26;20288;-69
2024/04/23 00:38:15;;;;;;;966.97;856.30;;;1.10;99.90;;;;;;5467920;26;20475;-68
2024/04/23 00:40:41;;;;;;;959.83;854.73;;;1.00;99.90;;;;;;5468023;26;20348;-71
2024/04/23 00:43:10;;;;;;;957.13;852.90;;;0.90;99.90;;;;;;5453787;26;20479;-70
2024/04/23 00:45:43;;;;;;;966.30;860.10;;;0.90;99.90;;;;;;5455976;26;20567;-71
2024/04/23 00:48:12;;;;;;;970.33;864.80;;;1.00;99.90;;;;;;5468377;26;20617;-70
2024/04/23 00:50:39;;;;;;;971.43;865.63;;;1.00;99.90;;;;;;5455254;26;20542;-70
2024/04/23 00:53:08;;;;;;;979.37;859.10;;;1.00;99.90;;;;;;5437121;26;21180;-68
2024/04/23 00:55:35;;;;;;;997.80;872.17;;;1.00;99.90;;;;;;5468615;26;20531;-70
2024/04/23 00:58:04;;;;;;;996.57;884.10;;;1.00;99.90;;;;;;5464251;26;20525;-71
2024/04/23 01:00:30;;;;;;;983.97;864.47;;;0.90;99.90;;;;;;5417622;26;20473;-70
2024/04/23 01:03:02;;;;;;;977.43;869.00;;;0.80;99.90;;;;;;5419682;26;20537;-72
2024/04/23 01:05:28;;;;;;;979.93;863.30;;;0.70;99.90;;;;;;5464312;26;20510;-70
2024/04/23 01:07:56;;;;;;;991.60;875.50;;;0.60;99.90;;;;;;5444500;26;20585;-70
2024/04/23 01:10:22;;;;;;;988.03;860.13;;;0.60;99.90;;;;;;5450656;26;20513;-70
2024/04/23 01:12:51;;;;;;;989.50;855.67;;;0.60;99.90;;;;;;5453333;26;20475;-70
2024/04/23 01:15:18;;;;;;;1001.53;858.73;;;0.60;99.90;;;;;;5453703;26;20517;-72
2024/04/23 01:17:48;;;;;;;1004.53;854.37;;;0.60;99.90;;;;;;5452441;26;20879;-71
2024/04/23 01:20:19;;;;;;;999.23;856.73;;;0.60;99.90;;;;;;5448928;26;21138;-71
2024/04/23 01:22:53;;;;;;;982.80;861.07;;;0.60;99.90;;;;;;5441491;26;21081;-71
2024/04/23 01:25:22;;;;;;;1008.47;871.60;;;0.50;99.90;;;;;;5449864;26;20463;-71
2024/04/23 01:27:54;;;;;;;1014.60;884.70;;;0.50;99.90;;;;;;5468588;26;20929;-71
2024/04/23 01:30:20;;;;;;;1004.17;857.43;;;0.50;99.90;;;;;;5465566;26;20595;-70
2024/04/23 01:32:50;;;;;;;1012.73;859.10;;;0.40;99.90;;;;;;5452495;26;20512;-68
2024/04/23 01:35:17;;;;;;;1002.17;844.17;;;0.40;99.90;;;;;;5467904;26;21131;-68
2024/04/23 01:37:50;;;;;;;1006.70;853.10;;;0.30;99.90;;;;;;5467508;26;20666;-68
2024/04/23 01:40:16;;;;;;;1018.73;851.83;;;0.30;99.90;;;;;;5436831;26;21193;-68
2024/04/23 01:42:46;;;;;;;1016.93;860.47;;;0.40;99.90;;;;;;5453314;26;20784;-71
2024/04/23 01:45:15;;;;;;;1031.13;846.37;;;0.40;99.90;;;;;;5446752;26;20798;-70
2024/04/23 01:47:44;;;;;;;1018.93;869.47;;;0.40;99.90;;;;;;5430464;26;20851;-71
2024/04/23 01:50:11;;;;;;;1011.80;859.47;;;0.40;99.90;;;;;;5446622;26;20587;-71
2024/04/23 01:52:39;;;;;;;1020.00;863.73;;;0.50;99.90;;;;;;5457112;26;20547;-72
2024/04/23 01:55:07;;;;;;;1037.20;899.70;;;0.40;99.90;;;;;;5424107;26;20546;-71
2024/04/23 01:57:36;;;;;;;1037.03;897.00;;;0.40;99.90;;;;;;5468095;26;20467;-70
2024/04/23 02:00:04;;;;;;;1039.87;899.93;;;0.40;99.90;;;;;;5471840;26;20242;-70
2024/04/23 02:02:37;;;;;;;1054.40;898.80;;;0.30;99.90;;;;;;5434805;26;20468;-71
2024/04/23 02:05:05;;;;;;;1039.17;891.73;;;0.10;99.90;;;;;;5449962;26;20523;-71
2024/04/23 02:07:34;;;;;;;1041.87;888.57;;;0.00;99.90;;;;;;5434420;26;20813;-71
2024/04/23 02:10:01;;;;;;;1035.73;871.90;;;0.00;99.90;;;;;;5464841;26;20473;-70
2024/04/23 02:12:29;;;;;;;1067.37;878.03;;;0.00;99.90;;;;;;5456500;26;20461;-68
2024/04/23 02:14:55;;;;;;;1072.60;882.40;;;0.00;99.90;;;;;;5463597;26;20457;-72
2024/04/23 02:17:23;;;;;;;1064.80;878.60;;;0.00;99.90;;;;;;5467107;26;20459;-70
2024/04/23 02:19:52;;;;;;;1045.27;870.07;;;-0.20;99.90;;;;;;5468335;26;20562;-70
2024/04/23 02:22:21;;;;;;;1045.73;882.10;;;0.00;99.90;;;;;;5464778;26;20509;-70
2024/04/23 02:24:46;;;;;;;1045.63;884.53;;;0.10;99.90;;;;;;5467650;26;20508;-71
2024/04/23 02:27:15;;;;;;;1038.27;871.33;;;0.00;99.90;;;;;;5444998;26;20460;-72
2024/04/23 02:29:41;;;;;;;1063.07;865.03;;;0.10;99.90;;;;;;5430141;26;20447;-71
2024/04/23 02:32:09;;;;;;;1068.73;880.83;;;0.30;99.90;;;;;;5451584;26;20524;-72
2024/04/23 02:34:35;;;;;;;1109.45;890.65;;;0.10;99.90;;;;;;5463931;26;20454;-71
2024/04/23 02:37:06;;;;;;;1083.33;877.97;;;0.10;99.90;;;;;;5443049;26;20240;-70
2024/04/23 02:39:32;;;;;;;1113.70;885.87;;;-0.10;99.90;;;;;;5435176;26;21026;-71
2024/04/23 02:42:00;;;;;;;1084.17;883.33;;;-0.20;99.90;;;;;;5459963;26;20514;-71
2024/04/23 02:44:26;;;;;;;1124.28;887.13;;;-0.30;99.90;;;;;;5416140;26;20235;-70
2024/04/23 02:46:54;;;;;;;1129.20;877.43;;;-0.30;99.90;;;;;;5462393;26;20240;-70
2024/04/23 02:49:20;;;;;;;1147.73;871.33;;;-0.30;99.90;;;;;;5451765;26;20748;-70
2024/04/23 02:51:49;;;;;;;1133.53;886.53;;;-0.40;99.90;;;;;;5453567;26;20455;-71
2024/04/23 02:54:19;;;;;;;1118.13;904.80;;;-0.40;99.90;;;;;;5431196;26;20230;-70
2024/04/23 02:56:48;;;;;;;1087.80;882.87;;;-0.50;99.90;;;;;;5451575;26;20461;-70
2024/04/23 02:59:14;;;;;;;1102.07;879.80;;;-0.60;99.90;;;;;;5451067;26;20487;-70
2024/04/23 03:01:42;;;;;;;1084.10;883.17;;;-0.60;99.90;;;;;;5466716;26;20563;-69
2024/04/23 03:04:08;;;;;;;1067.57;881.97;;;-0.70;99.90;;;;;;5466825;26;20895;-71
2024/04/23 03:06:37;;;;;;;1059.37;884.60;;;-0.80;99.90;;;;;;5463716;26;20578;-70
2024/04/23 03:09:03;;;;;;;995.57;885.80;;;-0.80;99.90;;;;;;5457958;26;20569;-71
2024/04/23 03:11:34;;;;;;;983.33;880.83;;;-0.70;99.90;;;;;;5472669;26;20514;-71
2024/04/23 03:14:00;;;;;;;977.35;879.75;;;-0.60;99.90;;;;;;5451765;26;20480;-70
2024/04/23 03:16:28;;;;;;;977.90;884.20;;;-0.60;99.90;;;;;;5447114;26;20230;-70
2024/04/23 03:18:54;;;;;;;976.87;883.57;;;-0.70;99.90;;;;;;5466407;26;20324;-70
2024/04/23 03:21:22;;;;;;;975.90;885.93;;;-0.80;99.90;;;;;;5455213;26;20477;-70
2024/04/23 03:23:48;;;;;;;974.90;886.83;;;-0.80;99.90;;;;;;5421250;26;20242;-70
2024/04/23 03:26:16;;;;;;;970.87;884.47;;;-0.90;99.90;;;;;;5459047;26;20583;-70
2024/04/23 03:28:45;;;;;;;975.43;890.57;;;-0.90;99.90;;;;;;5429549;26;20237;-70
2024/04/23 03:31:13;;;;;;;950.07;867.73;;;-0.90;99.90;;;;;;5451717;26;20515;-70
2024/04/23 03:33:39;;;;;;;961.07;877.87;;;-0.90;99.90;;;;;;5465740;26;20455;-70
2024/04/23 03:36:09;;;;;;;959.03;877.13;;;-0.90;99.90;;;;;;5460753;26;20866;-70
2024/04/23 03:38:37;;;;;;;947.30;864.63;;;-1.00;99.90;;;;;;5427135;26;20471;-70
2024/04/23 03:41:06;;;;;;;951.53;870.37;;;-0.90;99.90;;;;;;5449042;26;20475;-70
2024/04/23 03:43:34;;;;;;;936.67;857.70;;;-1.00;99.90;;;;;;5432787;26;20817;-70
2024/04/23 03:46:05;;;;;;;918.57;840.43;;;-1.00;99.90;;;;;;5449152;26;20567;-69
2024/04/23 03:48:31;;;;;;;898.50;823.03;;;-0.90;99.90;;;;;;5430407;26;20530;-70
2024/04/23 03:51:00;;;;;;;899.97;823.97;;;-0.70;99.90;;;;;;5469321;26;20465;-70
2024/04/23 03:53:25;;;;;;;898.50;824.23;;;-0.70;99.90;;;;;;5464381;26;20228;-70
2024/04/23 03:55:54;;;;;;;861.23;790.47;;;-0.60;99.90;;;;;;5445705;26;20521;-70
2024/04/23 03:58:20;;;;;;;859.87;789.80;;;-0.80;99.90;;;;;;5475493;26;20837;-69
2024/04/23 04:00:48;;;;;;;863.42;793.92;;;-0.90;99.90;;;;;;5475117;26;20505;-70
2024/04/23 04:06:06;;;;;;;892.60;822.17;;;-0.90;99.90;;;;;;5475986;26;20507;-71
2024/04/23 04:08:35;;;;;;;888.47;818.47;;;-0.80;99.90;;;;;;5463904;26;20451;-70
2024/04/23 04:11:04;;;;;;;875.20;806.20;;;-0.80;99.90;;;;;;5466468;26;20516;-70
2024/04/23 04:13:30;;;;;;;868.37;798.57;;;-0.90;99.90;;;;;;5453224;26;20463;-70
2024/04/23 04:15:58;;;;;;;838.20;768.47;;;-1.00;99.90;;;;;;5471283;26;20577;-72
2024/04/23 04:18:27;;;;;;;848.90;780.37;;;-1.00;99.90;;;;;;5475328;26;20237;-70
2024/04/23 04:20:55;;;;;;;864.92;796.17;;;-1.10;99.90;;;;;;5452012;26;20511;-70
2024/04/23 04:23:21;;;;;;;887.00;815.40;;;-1.10;99.90;;;;;;5462408;26;20883;-70
2024/04/23 04:25:50;;;;;;;846.87;776.37;;;-1.00;99.90;;;;;;5430012;26;20512;-70
2024/04/23 04:28:16;;;;;;;842.63;773.67;;;-1.00;99.90;;;;;;5468521;26;20466;-70
2024/04/23 04:30:44;;;;;;;844.77;778.40;;;-1.00;99.90;;;;;;5468184;26;20446;-70
2024/04/23 04:33:10;;;;;;;798.27;733.10;;;-1.00;99.90;;;;;;5417703;26;20574;-70
2024/04/23 04:35:41;;;;;;;776.10;712.60;;;-1.10;99.90;;;;;;5430714;26;20467;-70
2024/04/23 04:38:07;;;;;;;798.67;734.80;;;-0.90;99.90;;;;;;5474309;26;20288;-70
2024/04/23 04:40:35;;;;;;;798.33;734.00;;;-0.90;99.90;;;;;;5463216;26;20581;-70
2024/04/23 04:43:01;;;;;;;804.33;740.33;;;-0.80;99.90;;;;;;5463954;26;20723;-71
2024/04/23 04:45:29;;;;;;;797.77;732.53;;;-0.70;99.90;;;;;;5417721;26;20575;-70
2024/04/23 04:47:55;;;;;;;813.53;746.83;;;-0.60;99.90;;;;;;5462314;26;20478;-71
2024/04/23 04:50:24;;;;;;;806.43;739.77;;;-0.70;99.90;;;;;;5426578;26;20577;-70
2024/04/23 04:52:52;;;;;;;786.05;720.25;;;-0.80;99.90;;;;;;5454275;26;20325;-71
2024/04/23 04:55:21;;;;;;;794.25;728.13;;;-0.80;99.90;;;;;;5474955;26;20271;-70
2024/04/23 04:57:47;;;;;;;802.88;737.08;;;-0.80;99.90;;;;;;5444230;26;20241;-70
2024/04/23 05:00:15;;;;;;;779.33;714.53;;;-0.80;99.90;;;;;;5474914;26;20271;-70
2024/04/23 05:02:41;;;;;;;793.20;724.97;;;-0.80;99.90;;;;;;5450113;26;20514;-70
2024/04/23 05:05:10;;;;;;;794.37;727.27;;;-0.70;99.90;;;;;;5435356;26;20546;-70
2024/04/23 05:07:36;;;;;;;774.67;708.30;;;-0.60;99.90;;;;;;5440264;26;20229;-70
2024/04/23 05:10:08;;;;;;;792.10;724.40;;;-0.60;99.90;;;;;;5467229;26;20478;-70
2024/04/23 05:12:35;;;;;;;819.67;751.17;;;-0.50;99.90;;;;;;5454948;26;20342;-70
2024/04/23 05:15:03;;;;;;;809.03;740.70;;;-0.40;99.90;;;;;;5442358;26;20455;-70
2024/04/23 05:17:29;;;;;;;807.40;739.57;;;-0.40;99.90;;;;;;5452930;26;20252;-71
2024/04/23 05:19:59;;;;;;;806.20;738.10;;;-0.40;99.90;;;;;;5429343;26;20459;-71
2024/04/23 05:22:25;;;;;;;863.67;789.57;;;-0.30;99.90;;;;;;5462618;26;20511;-71
2024/04/23 05:24:53;;;;;;;1024.07;855.87;;;-0.10;99.90;;;;;;5436907;26;20523;-70
2024/04/23 05:27:22;;;;;;;1003.60;811.70;;;0.30;99.90;;;;;;5463948;26;20462;-72
2024/04/23 05:29:54;;;;;;;993.17;786.50;;;0.70;99.90;;;;;;5458830;26;20832;-69
2024/04/23 05:35:07;;;;;;;962.90;767.07;;;1.50;99.90;;;;;;5449506;26;20519;-70
2024/04/23 05:37:33;;;;;;;954.23;747.20;;;1.80;99.90;;;;;;5443696;26;21013;-70
2024/04/23 05:40:02;;;;;;;927.43;740.27;;;2.10;99.90;;;;;;5465472;26;20451;-68
2024/04/23 05:42:33;;;;;;;908.60;739.73;;;2.30;99.90;;;;;;5458330;26;20951;-68
2024/04/23 05:45:01;;;;;;;907.83;748.90;;;2.50;99.90;;;;;;5471451;26;20459;-68
2024/04/23 05:47:29;;;;;;;835.33;715.33;;;2.80;99.90;;;;;;5455220;26;20608;-69
2024/04/23 05:50:35;;;;;;;799.17;712.97;;;3.30;99.90;;;;;;5465466;26;20585;-68
2024/04/23 05:53:41;;;;;;;982.47;896.10;;;3.80;99.90;;;;;;5444982;26;20467;-68
2024/04/23 05:56:10;;;;;;;979.57;900.37;;;4.20;99.90;;;;;;5447494;26;20525;-68
2024/04/23 05:58:38;;;;;;;859.90;797.47;;;4.30;99.90;;;;;;5448325;26;20460;-69
2024/04/23 06:01:07;;;;;;;735.40;688.37;;;4.60;99.90;;;;;;5471347;26;20467;-69
2024/04/23 06:03:33;;;;;;;763.93;716.97;;;4.70;99.90;;;;;;5441226;26;20475;-68
2024/04/23 06:06:01;;;;;;;506.23;483.07;;;4.80;99.90;;;;;;5478256;26;20517;-69
2024/04/23 06:08:30;;;;;;;332.47;319.37;;;4.60;99.90;;;;;;5459715;26;20466;-68
2024/04/23 06:10:55;;;;;;;327.93;315.87;;;4.40;99.90;;;;;;5462164;26;20531;-69
2024/04/23 06:13:24;;;;;;;343.70;330.70;;;4.40;99.90;;;;;;5442862;26;20970;-68
2024/04/23 06:15:52;;;;;;;456.97;440.27;;;4.30;99.90;;;;;;5619694;21;20254;-72
2024/04/23 06:18:22;;;;;;;404.60;389.77;;;4.30;99.90;;;;;;5389591;26;20616;-72
2024/04/23 06:20:51;;;;;;;418.27;404.10;;;4.10;99.90;;;;;;5410470;26;20543;-73
2024/04/23 06:23:20;;;;;;;477.80;461.80;;;4.00;99.90;;;;;;5398993;26;20462;-73
2024/04/23 06:25:49;;;;;;;649.63;625.97;;;3.90;99.90;;;;;;5396815;26;20515;-73
2024/04/23 06:28:14;;;;;;;712.27;685.40;;;3.90;99.90;;;;;;5375792;26;20575;-72
2024/04/23 06:30:43;;;;;;;775.83;744.53;;;3.80;99.90;;;;;;5403301;26;21022;-72
2024/04/23 06:33:12;;;;;;;842.83;803.73;;;3.80;99.90;;;;;;5373685;26;20509;-72
2024/04/23 06:35:40;;;;;;;866.53;824.37;;;3.70;99.90;;;;;;5402713;26;20528;-72
2024/04/23 06:38:06;;;;;;;925.63;874.83;;;3.70;99.90;;;;;;5397707;26;20473;-73
2024/04/23 06:40:34;;;;;;;953.57;897.97;;;3.70;99.90;;;;;;5393098;26;20529;-72
2024/04/23 06:43:00;;;;;;;940.53;885.70;;;3.80;99.90;;;;;;5398828;26;20280;-73
2024/04/23 06:45:29;;;;;;;961.60;904.43;;;3.70;99.90;;;;;;5396875;26;20473;-73
2024/04/23 06:47:54;;;;;;;972.50;913.70;;;3.80;99.90;;;;;;5373152;26;21021;-72
2024/04/23 06:50:26;;;;;;;979.10;920.63;;;3.80;99.90;;;;;;5391568;26;20515;-73
2024/04/23 06:52:51;;;;;;;972.20;913.77;;;3.80;99.90;;;;;;5413360;26;20274;-72
2024/04/23 06:55:20;;;;;;;914.97;862.60;;;3.90;99.90;;;;;;5395258;26;20987;-72
2024/04/23 06:57:48;;;;;;;891.63;843.93;;;3.90;99.90;;;;;;5400711;26;20278;-72
2024/04/23 07:00:14;;;;;;;898.27;848.90;;;4.00;99.90;;;;;;5403483;26;20513;-72
2024/04/23 07:02:43;;;;;;;913.33;863.10;;;4.10;99.90;;;;;;5398949;26;20466;-72
2024/04/23 07:05:09;;;;;;;858.03;817.17;;;4.20;99.90;;;;;;5388660;26;20593;-72
2024/04/23 07:07:40;;;;;;;825.03;788.77;;;4.20;99.90;;;;;;5396703;26;20482;-72
2024/04/23 07:10:07;;;;;;;831.10;795.33;;;4.20;99.90;;;;;;5394339;26;20244;-72
2024/04/23 07:12:36;;;;;;;764.80;735.67;;;4.30;99.90;;;;;;5395106;26;20602;-72
2024/04/23 07:15:04;;;;;;;811.90;778.80;;;4.30;99.90;;;;;;5392118;26;21049;-72
2024/04/23 07:17:30;;;;;;;829.43;794.23;;;4.50;99.90;;;;;;5398144;26;20459;-72
2024/04/23 07:19:59;;;;;;;690.00;665.73;;;4.60;99.90;;;;;;5380149;26;20524;-72
2024/04/23 07:22:24;;;;;;;623.63;602.63;;;4.60;99.90;;;;;;5418856;26;20226;-72
2024/04/23 07:24:56;;;;;;;337.47;326.47;;;4.70;99.90;;;;;;5359156;26;20463;-72
2024/04/23 07:27:21;;;;;;;137.53;131.77;;;4.80;99.90;;;;;;5392248;26;20227;-72
2024/04/23 07:29:50;;;;;;;42.00;39.23;;;4.90;96.10;;;;;;5403435;26;20461;-72
2024/04/23 07:32:17;;;;;;;31.63;29.47;;;5.00;96.10;;;;;;5391227;26;20243;-72
2024/04/23 07:34:45;;;;;;;24.80;22.67;;;5.00;88.70;;;;;;5401548;26;21071;-72
2024/04/23 07:37:12;;;;;;;24.93;22.40;;;5.00;73.70;;;;;;5383649;26;20474;-72
2024/04/23 07:39:40;;;;;;;21.43;19.13;;;5.10;82.70;;;;;;5380385;26;20508;-72
2024/04/23 07:42:09;;;;;;;17.38;11.30;;;5.20;73.80;;;;;;5392299;26;20364;-73
2024/04/23 07:44:37;;;;;;;20.10;11.40;;;5.20;73.80;;;;;;5396811;26;20586;-73
2024/04/23 07:47:03;;;;;;;15.23;12.03;;;5.30;73.90;;;;;;5389040;26;20498;-73
2024/04/23 07:49:32;;;;;;;14.82;9.55;;;5.60;75.30;;;;;;5392969;26;20354;-73
2024/04/23 07:51:57;;;;;;;15.30;9.75;;;5.70;74.20;;;;;;5391217;26;20511;-73
2024/04/23 07:54:26;;;;;;;14.90;10.13;;;6.00;74.50;;;;;;5378345;26;20411;-73
2024/04/23 07:56:52;;;;;;;11.90;8.80;;;6.40;74.80;;;;;;5382557;26;20549;-73
2024/04/23 07:59:23;;;;;;;13.47;8.37;;;6.90;75.00;;;;;;5404207;26;20472;-73
2024/04/23 08:01:51;;;;;;;12.90;7.73;;;7.30;59.70;;;;;;5389499;26;20236;-73
2024/04/23 08:04:17;;;;;;;15.50;7.93;;;7.80;60.00;;;;;;5382125;26;20577;-73
2024/04/23 08:06:46;;;;;;;14.17;7.50;;;8.20;52.00;;;;;;5397972;26;20958;-73
2024/04/23 08:09:12;;;;;;;10.43;6.20;;;8.50;43.50;;;;;;5380288;26;20469;-72
2024/04/23 08:11:41;;;;;;;11.37;7.60;;;9.00;44.00;;;;;;5379620;26;20508;-72
2024/04/23 08:14:07;;;;;;;10.97;7.00;;;9.30;27.30;;;;;;5404640;26;20584;-73
2024/04/23 08:16:38;;;;;;;13.77;6.83;;;9.70;27.50;;;;;;5385196;26;20524;-72
2024/04/23 08:19:04;;;;;;;12.30;7.03;;;9.80;1.00;;;;;;5396333;26;20224;-73
2024/04/23 08:21:35;;;;;;;16.87;8.60;;;9.60;1.00;;;;;;5389822;26;20458;-73
2024/04/23 08:24:01;;;;;;;16.73;7.80;;;9.90;1.00;;;;;;5397972;26;20512;-74
2024/04/23 08:26:29;;;;;;;12.07;8.00;;;10.20;1.00;;;;;;5387383;26;20471;-74
2024/04/23 08:28:55;;;;;;;10.50;7.60;;;10.70;1.00;;;;;;5391291;26;20269;-74
2024/04/23 08:31:25;;;;;;;11.73;7.03;;;10.90;1.00;;;;;;5385930;26;20470;-73
2024/04/23 08:33:55;;;;;;;11.10;6.53;;;11.20;1.00;;;;;;5399252;26;20317;-74
2024/04/23 08:36:24;;;;;;;10.00;6.83;;;11.50;1.00;;;;;;5396779;26;20586;-75
2024/04/23 08:38:50;;;;;;;13.03;8.57;;;11.70;1.00;;;;;;5388045;26;20526;-74
2024/04/23 08:41:20;;;;;;;11.67;7.43;;;11.30;1.00;;;;;;5379273;26;20459;-74
2024/04/23 08:43:54;;;;;;;11.20;7.17;;;11.70;1.00;;;;;;5386119;26;21027;-74
2024/04/23 08:46:21;;;;;;;13.90;8.07;;;11.80;1.00;;;;;;5373737;26;20451;-74
2024/04/23 08:48:51;;;;;;;8.80;5.77;;;12.10;1.00;;;;;;5381741;26;20541;-74
2024/04/23 08:51:21;;;;;;;11.40;6.10;;;11.90;1.00;;;;;;5374069;26;20522;-74
2024/04/23 08:53:51;;;;;;;10.50;6.20;;;11.80;1.00;;;;;;5381217;26;20470;-74
2024/04/23 08:56:22;;;;;;;10.63;6.47;;;11.80;1.00;;;;;;5409675;26;21004;-74
2024/04/23 08:58:51;;;;;;;10.37;5.20;;;11.80;1.00;;;;;;5411018;26;20457;-74
2024/04/23 09:01:24;;;;;;;9.37;5.57;;;11.80;1.00;;;;;;5378663;26;20478;-74
2024/04/23 09:03:56;;;;;;;10.90;6.77;;;11.50;1.00;;;;;;5367490;26;20926;-74
2024/04/23 09:06:25;;;;;;;11.00;6.13;;;12.00;1.00;;;;;;5390560;26;21036;-74
2024/04/23 09:08:54;;;;;;;9.30;5.87;;;12.60;1.00;;;;;;5397706;26;21171;-74
2024/04/23 09:11:20;;;;;;;8.67;5.63;;;13.00;1.00;;;;;;5402617;26;20811;-74
2024/04/23 09:13:49;;;;;;;11.77;4.97;;;13.00;1.00;;;;;;5386877;26;20581;-74
2024/04/23 09:16:15;;;;;;;12.00;4.50;;;12.50;1.00;;;;;;5396027;26;20478;-74
2024/04/23 09:18:43;;;;;;;7.37;4.07;;;12.40;1.00;;;;;;5396466;26;20466;-74
2024/04/23 09:21:09;;;;;;;10.47;5.63;;;13.20;1.00;;;;;;5402396;26;20567;-74
2024/04/23 09:23:40;;;;;;;7.47;3.90;;;13.40;1.00;;;;;;5402013;26;20468;-74
2024/04/23 09:26:07;;;;;;;7.00;4.00;;;13.30;1.00;;;;;;5353983;26;21087;-74
2024/04/23 09:28:36;;;;;;;8.40;3.83;;;13.50;1.00;;;;;;5384639;26;20512;-74
2024/04/23 09:31:03;;;;;;;11.20;3.77;;;14.30;1.00;;;;;;5394224;26;20484;-74
2024/04/23 09:33:32;;;;;;;6.90;3.70;;;14.60;1.00;;;;;;5385307;26;20491;-75
2024/04/23 09:36:02;;;;;;;6.63;3.67;;;15.40;1.00;;;;;;5392973;26;20473;-75
2024/04/23 09:38:35;;;;;;;10.40;4.23;;;16.10;1.00;;;;;;5385289;26;20503;-75
2024/04/23 09:41:04;;;;;;;5.40;3.00;;;15.40;1.00;;;;;;5366016;26;20459;-74
2024/04/23 09:43:33;;;;;;;9.00;4.40;;;14.60;1.00;;;;;;5359975;26;20467;-75
2024/04/23 09:45:59;;;;;;;7.60;5.10;;;14.90;1.00;;;;;;5368118;26;20484;-75
2024/04/23 09:48:31;;;;;;;11.87;4.43;;;14.40;1.00;;;;;;5366863;26;20880;-75
2024/04/23 09:51:01;;;;;;;9.17;4.50;;;15.00;1.00;;;;;;5368044;26;20526;-74
2024/04/23 09:53:32;;;;;;;7.23;4.03;;;14.60;1.00;;;;;;5372585;26;20471;-76
2024/04/23 09:56:00;;;;;;;6.87;3.20;;;14.30;1.00;;;;;;5361460;26;20837;-74
2024/04/23 09:58:31;;;;;;;7.87;3.40;;;14.70;1.00;;;;;;5376946;26;20565;-74
2024/04/23 10:00:58;;;;;;;6.23;2.67;;;15.00;1.00;;;;;;5358178;26;20474;-75
2024/04/23 10:03:28;;;;;;;10.03;3.47;;;14.60;1.00;;;;;;5362965;26;20551;-74
2024/04/23 10:06:02;;;;;;;7.43;3.90;;;14.40;1.00;;;;;;5391140;26;20509;-75
2024/04/23 10:08:37;;;;;;;7.10;3.83;;;14.20;1.00;;;;;;5374427;26;20464;-75
2024/04/23 10:11:04;;;;;;;6.00;2.87;;;14.70;1.00;;;;;;5384434;26;20809;-74
2024/04/23 10:13:39;;;;;;;6.87;3.80;;;15.60;1.00;;;;;;5377979;26;20529;-74
2024/04/23 10:16:13;;;;;;;7.77;3.30;;;16.00;1.00;;;;;;5379338;26;20478;-74
2024/04/23 10:18:46;;;;;;;6.57;2.87;;;15.90;1.00;;;;;;5386278;26;20849;-75
2024/04/23 10:21:16;;;;;;;7.30;3.03;;;15.30;1.00;;;;;;5353925;26;20475;-74
2024/04/23 10:23:45;;;;;;;6.47;4.00;;;16.00;1.00;;;;;;5395113;26;20463;-74
2024/04/23 10:26:13;;;;;;;5.90;3.10;;;15.10;1.00;;;;;;5376464;26;20509;-74
2024/04/23 10:28:45;;;;;;;6.77;3.23;;;15.60;1.00;;;;;;5381492;26;20455;-75
2024/04/23 10:31:12;;;;;;;7.93;3.80;;;15.30;1.00;;;;;;5354683;26;20997;-75
2024/04/23 10:33:41;;;;;;;5.90;3.13;;;16.70;1.00;;;;;;5374092;26;20478;-75
2024/04/23 10:36:08;;;;;;;6.87;3.50;;;16.50;1.00;;;;;;5362005;26;20503;-74
2024/04/23 10:38:39;;;;;;;11.73;4.67;;;16.70;1.00;;;;;;5379180;26;20462;-74
2024/04/23 10:41:05;;;;;;;7.72;4.22;;;15.80;1.00;;;;;;5359354;26;20387;-75
2024/04/23 10:43:34;;;;;;;7.80;4.07;;;15.70;1.00;;;;;;5354445;26;20267;-74
2024/04/23 10:46:03;;;;;;;7.70;3.88;;;16.30;1.00;;;;;;5373215;26;20485;-75
2024/04/23 10:48:31;;;;;;;6.97;4.43;;;17.10;1.00;;;;;;5384695;26;20220;-75
2024/04/23 10:50:58;;;;;;;7.90;4.37;;;17.00;1.00;;;;;;5369355;26;20454;-75
2024/04/23 10:53:27;;;;;;;7.43;4.10;;;17.70;1.00;;;;;;5363840;26;20474;-74
2024/04/23 10:55:52;;;;;;;7.50;3.13;;;18.70;1.00;;;;;;5396891;26;20476;-73
2024/04/23 10:58:23;;;;;;;7.20;3.47;;;18.20;1.00;;;;;;5370776;26;20462;-73
2024/04/23 11:00:58;;;;;;;6.37;3.70;;;17.10;1.00;;;;;;5381423;26;20329;-74
2024/04/23 11:03:31;;;;;;;6.30;3.23;;;16.40;1.00;;;;;;5389514;26;20471;-74
2024/04/23 11:05:57;;;;;;;6.30;3.00;;;16.80;1.00;;;;;;5364771;26;20456;-77
2024/04/23 11:08:27;;;;;;;6.60;3.53;;;16.80;1.00;;;;;;5380102;26;21120;-77
2024/04/23 11:11:03;;;;;;;7.40;3.53;;;18.80;1.00;;;;;;5387165;26;20590;-76
2024/04/23 11:13:32;;;;;;;6.50;3.50;;;17.70;1.00;;;;;;5405963;26;20878;-78
2024/04/23 11:16:00;;;;;;;8.00;3.27;;;17.20;1.00;;;;;;5361941;26;20459;-78
2024/04/23 11:18:41;;;;;;;5.93;3.30;;;16.80;1.00;;;;;;5374999;26;21000;-76
2024/04/23 11:21:08;;;;;;;6.67;3.17;;;17.70;1.00;;;;;;5399704;26;21003;-76
2024/04/23 11:23:41;;;;;;;6.53;3.13;;;18.80;1.00;;;;;;5370674;26;20460;-76
2024/04/23 11:26:09;;;;;;;6.87;3.13;;;18.80;1.00;;;;;;5383445;26;20462;-78
2024/04/23 11:28:39;;;;;;;7.70;3.30;;;18.50;1.00;;;;;;5374655;26;21020;-77
2024/04/23 11:31:05;;;;;;;6.57;3.23;;;17.60;1.00;;;;;;5360881;26;20818;-77
2024/04/23 11:33:37;;;;;;;6.10;3.50;;;17.00;1.00;;;;;;5354334;26;20552;-77
2024/04/23 11:36:03;;;;;;;8.97;3.63;;;18.40;1.00;;;;;;5366391;26;20517;-77
2024/04/23 11:38:42;;;;;;;5.73;2.77;;;18.50;1.00;;;;;;5384851;26;20517;-76
2024/04/23 11:41:11;;;;;;;6.90;3.43;;;17.70;1.00;;;;;;5393590;26;20465;-77
2024/04/23 11:43:43;;;;;;;7.60;3.73;;;17.60;1.00;;;;;;5391705;26;20442;-77
2024/04/23 11:46:12;;;;;;;6.60;3.03;;;18.80;1.00;;;;;;5377367;26;20578;-76
2024/04/23 11:48:43;;;;;;;8.17;3.43;;;18.10;1.00;;;;;;5350917;26;20466;-76
2024/04/23 11:51:10;;;;;;;12.43;3.77;;;18.60;1.00;;;;;;5365698;26;20883;-78
2024/04/23 11:53:39;;;;;;;6.93;4.07;;;18.20;1.00;;;;;;5356253;26;20463;-76
2024/04/23 11:56:06;;;;;;;7.87;3.80;;;18.00;1.00;;;;;;5396706;26;20577;-75
2024/04/23 11:58:39;;;;;;;6.63;3.23;;;19.20;1.00;;;;;;5372524;26;20462;-75
2024/04/23 12:01:07;;;;;;;7.10;3.23;;;18.00;1.00;;;;;;5370130;26;20485;-75
2024/04/23 12:03:35;;;;;;;6.30;3.13;;;17.60;1.00;;;;;;5356374;26;20542;-77
2024/04/23 12:06:05;;;;;;;7.03;3.23;;;17.20;1.00;;;;;;5379760;26;20953;-77
2024/04/23 12:08:34;;;;;;;6.57;3.80;;;18.40;1.00;;;;;;5366618;26;20662;-77
2024/04/23 12:11:01;;;;;;;8.70;3.13;;;19.40;1.00;;;;;;5385482;26;20565;-77
2024/04/23 12:13:30;;;;;;;6.37;3.10;;;20.80;1.00;;;;;;5392600;26;20909;-77
2024/04/23 12:15:56;;;;;;;6.13;2.83;;;20.80;1.00;;;;;;5375004;26;20845;-77
2024/04/23 12:18:27;;;;;;;6.90;3.20;;;19.30;1.00;;;;;;5394944;26;20469;-77
2024/04/23 12:20:53;;;;;;;6.80;3.80;;;18.00;1.00;;;;;;5368042;26;20450;-77
2024/04/23 12:23:25;;;;;;;6.40;3.33;;;17.70;1.00;;;;;;5381978;26;20462;-76
2024/04/23 12:25:52;;;;;;;6.97;3.53;;;17.10;1.00;;;;;;5400467;26;20456;-76
2024/04/23 12:28:21;;;;;;;7.63;3.50;;;16.00;1.00;;;;;;5390669;26;20543;-76
2024/04/23 12:30:47;;;;;;;7.00;3.23;;;15.50;1.00;;;;;;5376838;26;20461;-74
2024/04/23 12:33:17;;;;;;;7.20;3.70;;;15.00;1.00;;;;;;5367748;26;20454;-73
2024/04/23 12:35:43;;;;;;;9.00;3.93;;;14.50;1.00;;;;;;5402801;26;20477;-73
2024/04/23 12:38:12;;;;;;;8.03;4.20;;;14.10;1.00;;;;;;5387706;26;20481;-74
2024/04/23 12:40:41;;;;;;;8.00;4.37;;;13.50;1.00;;;;;;5389845;26;20465;-72